Time;durP1;ratioP1;P1;durP2;ratioP2;P2;SDS_P1;SDS_P2;PMS_P1;PMS_P2;Temp;Humidity;BMP_temperature;BMP_pressure;BME280_temperature;BME280_humidity;BME280_pressure;Samples;Min_cycle;Max_cycle;Signal;HPM_P1;HPM_P2
2022/07/29 00:01:35;;;;;;;10.43;6.10;;;;;;;;;;4390047;32;20504;-65
2022/07/29 00:04:02;;;;;;;9.38;6.10;;;;;;;;;;4391116;32;20077;-65
2022/07/29 00:06:29;;;;;;;7.95;6.18;;;;;;;;;;4391385;32;20124;-65
2022/07/29 00:08:55;;;;;;;10.55;6.20;;;;;;;;;;4391051;32;20081;-65
2022/07/29 00:11:22;;;;;;;10.68;6.15;;;;;;;;;;4390913;32;20061;-65
2022/07/29 00:13:48;;;;;;;11.52;6.03;;;;;;;;;;4391282;32;20526;-65
2022/07/29 00:16:15;;;;;;;11.38;6.20;;;;;;;;;;4391104;32;20096;-65
2022/07/29 00:18:42;;;;;;;11.70;7.10;;;;;;;;;;4391451;32;20066;-65
2022/07/29 00:21:08;;;;;;;8.70;5.82;;;;;;;;;;4391351;32;20500;-65
2022/07/29 00:23:35;;;;;;;10.38;6.45;;;;;;;;;;4391298;32;20077;-65
2022/07/29 00:26:02;;;;;;;9.95;6.57;;;;;;;;;;4394024;32;20084;-65
2022/07/29 00:28:28;;;;;;;12.57;6.85;;;;;;;;;;4394084;32;20101;-65
2022/07/29 00:30:55;;;;;;;9.98;6.50;;;;;;;;;;4393922;32;20083;-65
2022/07/29 00:33:23;;;;;;;12.05;7.03;;;;;;;;;;4392310;32;20455;-64
2022/07/29 00:35:50;;;;;;;8.10;5.90;;;;;;;;;;4392131;32;20437;-65
2022/07/29 00:38:18;;;;;;;10.30;6.18;;;;;;;;;;4392635;32;20433;-65
2022/07/29 00:40:45;;;;;;;7.85;5.68;;;;;;;;;;4392347;32;20210;-65
2022/07/29 00:43:13;;;;;;;7.97;5.60;;;;;;;;;;4392499;32;20175;-65
2022/07/29 00:45:41;;;;;;;7.20;5.30;;;;;;;;;;4392499;32;20090;-65
2022/07/29 00:48:08;;;;;;;8.95;5.80;;;;;;;;;;4392412;32;20085;-64
2022/07/29 00:50:35;;;;;;;9.02;5.30;;;;;;;;;;4392436;32;20064;-65
2022/07/29 00:53:03;;;;;;;10.15;6.07;;;;;;;;;;4393613;32;20124;-65
2022/07/29 00:55:30;;;;;;;9.75;5.70;;;;;;;;;;4392576;32;20093;-65
2022/07/29 00:57:58;;;;;;;9.35;6.30;;;;;;;;;;4392392;32;20084;-65
2022/07/29 01:00:26;;;;;;;7.35;5.37;;;;;;;;;;4392349;32;20097;-65
2022/07/29 01:02:53;;;;;;;8.43;5.65;;;;;;;;;;4393400;32;20097;-65
2022/07/29 01:05:22;;;;;;;11.63;6.05;;;;;;;;;;4393445;32;20585;-65
2022/07/29 01:07:51;;;;;;;11.68;6.20;;;;;;;;;;4392184;32;20086;-65
2022/07/29 01:10:19;;;;;;;10.50;6.10;;;;;;;;;;4391853;32;20072;-64
2022/07/29 01:12:48;;;;;;;10.45;6.43;;;;;;;;;;4392343;32;20089;-64
2022/07/29 01:15:15;;;;;;;9.27;5.78;;;;;;;;;;4391654;32;20521;-65
2022/07/29 01:17:54;;;;;;;8.80;6.20;;;;;;;;;;4392516;32;20092;-64
2022/07/29 01:20:31;;;;;;;10.80;6.55;;;;;;;;;;4393800;32;20073;-65
2022/07/29 01:23:13;;;;;;;10.55;6.18;;;;;;;;;;4392535;32;20090;-65
2022/07/29 01:26:21;;;;;;;11.63;6.90;;;;;;;;;;4393824;32;20161;-64
2022/07/29 01:29:08;;;;;;;9.05;6.37;;;;;;;;;;4384922;32;20150;-65
2022/07/29 01:31:39;;;;;;;12.68;5.82;;;;;;;;;;4393833;32;20834;-65
2022/07/29 01:34:09;;;;;;;10.90;6.60;;;;;;;;;;4379233;32;20089;-64
2022/07/29 01:36:46;;;;;;;9.07;6.68;;;;;;;;;;4391643;32;20070;-65
2022/07/29 01:39:31;;;;;;;10.90;6.55;;;;;;;;;;4379636;32;20093;-65
2022/07/29 01:42:08;;;;;;;9.20;7.05;;;;;;;;;;4392337;32;20077;-65
2022/07/29 01:44:46;;;;;;;10.00;7.00;;;;;;;;;;4393021;32;20519;-65
2022/07/29 01:47:16;;;;;;;12.27;7.00;;;;;;;;;;4378513;32;20482;-65
2022/07/29 01:49:48;;;;;;;10.50;6.47;;;;;;;;;;4391291;32;20076;-64
2022/07/29 01:52:36;;;;;;;10.98;6.28;;;;;;;;;;4391930;32;20073;-64
2022/07/29 01:55:16;;;;;;;9.05;6.82;;;;;;;;;;4391172;32;20074;-65
2022/07/29 01:57:45;;;;;;;11.85;7.20;;;;;;;;;;4391166;32;20162;-65
2022/07/29 02:00:13;;;;;;;13.38;7.62;;;;;;;;;;4391675;32;20160;-65
2022/07/29 02:02:41;;;;;;;9.57;7.12;;;;;;;;;;4391153;32;20081;-65
2022/07/29 02:05:12;;;;;;;10.45;7.12;;;;;;;;;;4391100;32;20092;-65
2022/07/29 02:07:41;;;;;;;16.02;7.30;;;;;;;;;;4391054;32;20508;-64
2022/07/29 02:10:09;;;;;;;11.25;7.62;;;;;;;;;;4390849;32;20081;-65
2022/07/29 02:12:36;;;;;;;11.30;7.20;;;;;;;;;;4378634;32;20125;-65
2022/07/29 02:15:04;;;;;;;11.93;7.62;;;;;;;;;;4366404;32;20162;-65
2022/07/29 02:17:44;;;;;;;11.07;7.95;;;;;;;;;;4391186;32;20511;-64
2022/07/29 02:20:11;;;;;;;14.77;7.80;;;;;;;;;;4391241;32;20512;-65
2022/07/29 02:22:39;;;;;;;14.45;7.93;;;;;;;;;;4390633;32;20085;-65
2022/07/29 02:25:07;;;;;;;15.43;8.60;;;;;;;;;;4391256;32;20084;-64
2022/07/29 02:27:35;;;;;;;12.32;7.82;;;;;;;;;;4390984;32;20081;-64
2022/07/29 02:30:03;;;;;;;15.55;9.25;;;;;;;;;;4378239;32;20160;-65
2022/07/29 02:32:31;;;;;;;17.60;9.48;;;;;;;;;;4391971;32;20451;-64
2022/07/29 02:34:59;;;;;;;14.68;9.30;;;;;;;;;;4390802;32;20097;-65
2022/07/29 02:37:26;;;;;;;13.98;8.65;;;;;;;;;;4392033;32;20074;-64
2022/07/29 02:39:54;;;;;;;16.45;9.10;;;;;;;;;;4392427;32;20149;-65
2022/07/29 02:42:22;;;;;;;15.90;8.38;;;;;;;;;;4390872;32;20170;-64
2022/07/29 02:44:50;;;;;;;18.45;9.20;;;;;;;;;;4391779;32;20078;-65
2022/07/29 02:47:42;;;;;;;19.35;9.85;;;;;;;;;;4390449;32;20081;-64
2022/07/29 02:50:14;;;;;;;17.83;8.88;;;;;;;;;;4391755;32;20077;-64
2022/07/29 02:53:05;;;;;;;16.27;8.88;;;;;;;;;;4392327;32;20160;-65
2022/07/29 02:55:40;;;;;;;20.37;9.38;;;;;;;;;;4390411;32;20064;-64
2022/07/29 02:58:20;;;;;;;18.37;9.37;;;;;;;;;;4390987;32;20093;-65
2022/07/29 03:00:48;;;;;;;15.80;8.70;;;;;;;;;;4390321;32;20468;-65
2022/07/29 03:03:17;;;;;;;16.37;9.07;;;;;;;;;;4391804;32;20081;-65
2022/07/29 03:05:44;;;;;;;17.73;10.35;;;;;;;;;;4390194;32;20500;-65
2022/07/29 03:08:11;;;;;;;16.48;9.18;;;;;;;;;;4390248;32;20208;-65
2022/07/29 03:10:40;;;;;;;16.48;9.05;;;;;;;;;;4389979;32;20133;-65
2022/07/29 03:13:08;;;;;;;15.35;9.27;;;;;;;;;;4377814;32;20089;-65
2022/07/29 03:15:35;;;;;;;19.17;9.82;;;;;;;;;;4390005;32;20532;-65
2022/07/29 03:18:01;;;;;;;14.32;8.55;;;;;;;;;;4390710;32;20077;-64
2022/07/29 03:20:28;;;;;;;16.60;9.80;;;;;;;;;;4390202;32;20081;-65
2022/07/29 03:22:55;;;;;;;15.18;8.63;;;;;;;;;;4391652;32;20070;-65
2022/07/29 03:25:21;;;;;;;17.20;9.73;;;;;;;;;;4377474;32;20057;-65
2022/07/29 03:27:49;;;;;;;12.00;8.10;;;;;;;;;;4391366;32;20096;-65
2022/07/29 03:30:16;;;;;;;14.25;8.52;;;;;;;;;;4391722;32;20517;-65
2022/07/29 03:32:42;;;;;;;15.63;8.77;;;;;;;;;;4390564;32;20085;-64
2022/07/29 03:35:09;;;;;;;15.80;8.27;;;;;;;;;;4391635;32;20101;-64
2022/07/29 03:37:36;;;;;;;15.45;7.97;;;;;;;;;;4390458;32;20070;-65
2022/07/29 03:40:09;;;;;;;15.95;8.55;;;;;;;;;;4377374;32;20581;-65
2022/07/29 03:42:38;;;;;;;16.77;8.07;;;;;;;;;;4391841;32;20073;-64
2022/07/29 03:45:09;;;;;;;13.50;8.13;;;;;;;;;;4377136;32;20073;-65
2022/07/29 03:47:41;;;;;;;12.13;7.12;;;;;;;;;;4390271;32;20094;-64
2022/07/29 03:50:08;;;;;;;12.73;7.57;;;;;;;;;;4377460;32;20169;-66
2022/07/29 03:52:35;;;;;;;11.90;6.93;;;;;;;;;;4391548;32;20188;-65
2022/07/29 03:55:02;;;;;;;13.30;7.25;;;;;;;;;;4391668;32;20162;-64
2022/07/29 03:57:31;;;;;;;12.30;7.40;;;;;;;;;;4391703;32;20088;-65
2022/07/29 03:59:58;;;;;;;8.57;6.32;;;;;;;;;;4380395;32;20112;-65
2022/07/29 04:02:25;;;;;;;11.90;7.12;;;;;;;;;;4392944;32;20085;-65
2022/07/29 04:04:52;;;;;;;13.32;7.55;;;;;;;;;;4394201;32;20076;-64
2022/07/29 04:07:19;;;;;;;10.85;6.85;;;;;;;;;;4392662;32;20092;-65
2022/07/29 04:09:46;;;;;;;10.48;7.10;;;;;;;;;;4393338;32;20089;-65
2022/07/29 04:12:12;;;;;;;11.32;6.32;;;;;;;;;;4394224;32;20079;-65
2022/07/29 04:14:39;;;;;;;10.25;6.53;;;;;;;;;;4392793;32;20160;-65
2022/07/29 04:17:06;;;;;;;12.52;6.32;;;;;;;;;;4394195;32;20078;-65
2022/07/29 04:19:33;;;;;;;9.10;5.95;;;;;;;;;;4393927;32;20194;-65
2022/07/29 04:22:00;;;;;;;10.70;6.12;;;;;;;;;;4392552;32;20085;-65
2022/07/29 04:24:27;;;;;;;8.63;5.72;;;;;;;;;;4392899;32;20073;-65
2022/07/29 04:26:54;;;;;;;9.88;5.47;;;;;;;;;;4394145;32;20108;-65
2022/07/29 04:29:20;;;;;;;7.90;5.10;;;;;;;;;;4393933;32;20073;-65
2022/07/29 04:31:47;;;;;;;8.95;5.85;;;;;;;;;;4393705;32;20085;-65
2022/07/29 04:34:14;;;;;;;7.68;5.78;;;;;;;;;;4393227;32;20180;-65
2022/07/29 04:36:40;;;;;;;7.37;5.70;;;;;;;;;;4395769;32;20094;-65
2022/07/29 04:39:07;;;;;;;11.35;5.12;;;;;;;;;;4400058;32;20505;-66
2022/07/29 04:41:33;;;;;;;9.23;6.00;;;;;;;;;;4399555;32;20070;-65
2022/07/29 04:44:04;;;;;;;8.52;5.45;;;;;;;;;;4397767;32;20084;-64
2022/07/29 04:46:31;;;;;;;8.65;5.32;;;;;;;;;;4395297;32;20072;-65
2022/07/29 04:48:58;;;;;;;9.25;5.35;;;;;;;;;;4396758;32;20101;-64
2022/07/29 04:51:25;;;;;;;7.93;5.85;;;;;;;;;;4395338;32;20114;-64
2022/07/29 04:53:51;;;;;;;9.98;5.75;;;;;;;;;;4395982;32;20075;-66
2022/07/29 04:56:18;;;;;;;7.15;4.97;;;;;;;;;;4394089;32;20116;-64
2022/07/29 04:58:45;;;;;;;6.72;5.25;;;;;;;;;;4394843;32;20180;-65
2022/07/29 05:01:11;;;;;;;9.38;5.20;;;;;;;;;;4392265;32;20153;-65
2022/07/29 05:03:38;;;;;;;6.50;5.07;;;;;;;;;;4379599;32;20077;-64
2022/07/29 05:06:05;;;;;;;8.05;5.03;;;;;;;;;;4392086;32;20089;-64
2022/07/29 05:08:31;;;;;;;7.93;5.40;;;;;;;;;;4391348;32;20141;-65
2022/07/29 05:10:58;;;;;;;6.75;5.40;;;;;;;;;;4393192;32;20072;-65
2022/07/29 05:13:25;;;;;;;7.35;5.47;;;;;;;;;;4392052;32;20069;-64
2022/07/29 05:15:51;;;;;;;9.27;5.53;;;;;;;;;;4393440;32;20086;-65
2022/07/29 05:18:18;;;;;;;8.05;5.60;;;;;;;;;;4393565;32;20109;-65
2022/07/29 05:20:44;;;;;;;7.40;5.60;;;;;;;;;;4393542;32;20081;-64
2022/07/29 05:23:12;;;;;;;7.70;5.10;;;;;;;;;;4393201;32;20087;-65
2022/07/29 05:25:39;;;;;;;7.35;5.07;;;;;;;;;;4379097;32;20529;-65
2022/07/29 05:28:05;;;;;;;6.75;5.07;;;;;;;;;;4393131;32;20084;-65
2022/07/29 05:30:32;;;;;;;6.93;5.40;;;;;;;;;;4379472;32;20503;-65
2022/07/29 05:32:59;;;;;;;10.52;5.35;;;;;;;;;;4392827;32;20153;-65
2022/07/29 05:35:25;;;;;;;5.93;5.03;;;;;;;;;;4393220;32;20172;-65
2022/07/29 05:37:52;;;;;;;7.55;5.20;;;;;;;;;;4392799;32;20086;-65
2022/07/29 05:40:19;;;;;;;7.93;5.40;;;;;;;;;;4393027;32;20077;-65
2022/07/29 05:42:45;;;;;;;9.35;5.22;;;;;;;;;;4393465;32;20080;-65
2022/07/29 05:45:12;;;;;;;6.87;5.45;;;;;;;;;;4378702;32;20146;-65
2022/07/29 05:47:39;;;;;;;5.37;4.53;;;;;;;;;;4393049;32;20164;-64
2022/07/29 05:50:06;;;;;;;7.20;5.28;;;;;;;;;;4393089;32;20599;-64
2022/07/29 05:52:33;;;;;;;6.70;4.55;;;;;;;;;;4378899;32;20072;-65
2022/07/29 05:55:02;;;;;;;8.15;5.30;;;;;;;;;;4392883;32;20066;-65
2022/07/29 05:57:29;;;;;;;6.68;4.95;;;;;;;;;;4392892;32;20062;-64
2022/07/29 05:59:55;;;;;;;8.57;5.28;;;;;;;;;;4391048;32;20084;-64
2022/07/29 06:02:22;;;;;;;6.68;5.00;;;;;;;;;;4392508;32;20086;-64
2022/07/29 06:04:49;;;;;;;10.95;5.78;;;;;;;;;;4392340;32;20090;-65
2022/07/29 06:07:16;;;;;;;6.25;4.90;;;;;;;;;;4392563;32;20084;-65
2022/07/29 06:09:42;;;;;;;6.12;5.22;;;;;;;;;;4392529;32;20093;-65
2022/07/29 06:12:09;;;;;;;6.85;5.05;;;;;;;;;;4392717;32;20520;-65
2022/07/29 06:14:42;;;;;;;7.97;5.05;;;;;;;;;;4378288;32;20076;-65
2022/07/29 06:17:11;;;;;;;7.05;4.93;;;;;;;;;;4391926;32;20498;-65
2022/07/29 06:19:39;;;;;;;7.35;5.00;;;;;;;;;;4392292;32;20074;-64
2022/07/29 06:22:05;;;;;;;6.32;5.25;;;;;;;;;;4392347;32;20148;-66
2022/07/29 06:24:32;;;;;;;9.85;5.30;;;;;;;;;;4390958;32;20077;-65
2022/07/29 06:26:58;;;;;;;6.60;4.95;;;;;;;;;;4391254;32;20156;-65
2022/07/29 06:29:44;;;;;;;6.90;4.75;;;;;;;;;;4390870;32;20077;-65
2022/07/29 06:32:11;;;;;;;6.60;5.05;;;;;;;;;;4391497;32;20144;-65
2022/07/29 06:34:38;;;;;;;8.80;5.37;;;;;;;;;;4390809;32;20092;-65
2022/07/29 06:37:23;;;;;;;5.95;4.40;;;;;;;;;;4391096;32;20095;-65
2022/07/29 06:40:59;;;;;;;7.75;4.87;;;;;;;;;;4390913;32;20600;-65
2022/07/29 06:43:18;;;;;;;7.65;4.60;;;;;;;;;;4374625;32;20104;-65
2022/07/29 06:46:07;;;;;;;11.45;5.45;;;;;;;;;;4374544;32;20621;-65
2022/07/29 06:48:36;;;;;;;6.18;4.62;;;;;;;;;;4362031;32;20496;-65
2022/07/29 06:55:02;;;;;;;10.13;4.43;;;;;;;;;;4377259;32;20156;-65
2022/07/29 07:04:33;;;;;;;6.10;4.78;;;;;;;;;;4374499;32;20111;-65
2022/07/29 07:10:59;;;;;;;6.00;4.28;;;;;;;;;;4374453;32;20187;-64
2022/07/29 07:17:33;;;;;;;6.95;5.05;;;;;;;;;;4391847;32;20108;-65
2022/07/29 07:20:21;;;;;;;9.45;6.12;;;;;;;;;;4391734;32;20078;-65
2022/07/29 07:22:53;;;;;;;8.90;5.43;;;;;;;;;;4389884;32;20109;-64
2022/07/29 07:29:02;;;;;;;7.03;5.62;;;;;;;;;;4391338;32;20177;-65
2022/07/29 07:38:52;;;;;;;8.00;5.55;;;;;;;;;;4391563;32;20077;-64
2022/07/29 07:59:59;;;;;;;10.23;5.25;;;;;;;;;;4391563;32;20525;-65
2022/07/29 08:02:45;;;;;;;8.02;5.45;;;;;;;;;;4391164;32;20530;-65
2022/07/29 08:19:58;;;;;;;9.20;6.65;;;;;;;;;;4374091;32;20098;-64
2022/07/29 08:26:10;;;;;;;10.30;6.60;;;;;;;;;;4373787;32;20163;-64
2022/07/29 08:32:21;;;;;;;8.18;6.03;;;;;;;;;;4373471;32;20101;-65
2022/07/29 08:35:24;;;;;;;7.95;5.35;;;;;;;;;;4362091;32;20177;-65
2022/07/29 08:45:04;;;;;;;7.57;5.07;;;;;;;;;;4392220;32;20082;-64
2022/07/29 08:47:49;;;;;;;9.55;5.32;;;;;;;;;;4379933;32;20157;-65
2022/07/29 08:54:17;;;;;;;9.82;5.40;;;;;;;;;;4393654;32;20548;-64
2022/07/29 09:29:37;;;;;;;9.10;5.95;;;;;;;;;;4316480;33;20453;-65
2022/07/29 09:35:28;;;;;;;7.97;5.20;;;;;;;;;;4387213;32;20227;-65
2022/07/29 09:52:29;;;;;;;6.82;5.05;;;;;;;;;;4393274;32;20576;-65
2022/07/29 09:58:46;;;;;;;7.25;5.70;;;;;;;;;;4392806;32;20161;-66
2022/07/29 10:12:19;;;;;;;8.32;5.50;;;;;;;;;;4392470;32;20190;-65
2022/07/29 10:19:05;;;;;;;7.32;5.37;;;;;;;;;;4392990;32;20088;-65
2022/07/29 10:59:25;;;;;;;7.62;4.95;;;;;;;;;;4391655;32;20141;-65
2022/07/29 11:31:33;;;;;;;8.20;5.53;;;;;;;;;;4392390;32;20174;-65
2022/07/29 11:41:22;;;;;;;11.15;5.40;;;;;;;;;;4359122;32;20159;-65
2022/07/29 12:19:27;;;;;;;8.13;5.85;;;;;;;;;;4361327;32;20179;-64
2022/07/29 12:40:23;;;;;;;7.93;5.90;;;;;;;;;;4378900;32;20488;-65
2022/07/29 12:47:09;;;;;;;9.57;6.30;;;;;;;;;;4379159;32;20096;-66
2022/07/29 13:08:20;;;;;;;8.27;6.22;;;;;;;;;;4393501;32;20529;-63
2022/07/29 13:15:08;;;;;;;8.95;6.75;;;;;;;;;;4393553;32;20104;-65
2022/07/29 13:25:40;;;;;;;9.23;6.30;;;;;;;;;;4376234;32;20159;-65
2022/07/29 13:32:07;;;;;;;10.93;6.05;;;;;;;;;;4375702;32;20096;-65
2022/07/29 13:35:11;;;;;;;8.55;6.32;;;;;;;;;;4351235;32;20644;-64
2022/07/29 13:41:20;;;;;;;9.13;6.72;;;;;;;;;;4375695;32;20690;-65
2022/07/29 13:47:13;;;;;;;10.13;6.03;;;;;;;;;;4375771;32;20102;-65
2022/07/29 14:15:13;;;;;;;9.82;6.85;;;;;;;;;;4392693;32;20147;-64
2022/07/29 14:25:44;;;;;;;7.25;5.82;;;;;;;;;;4330869;33;20571;-65
2022/07/29 14:35:33;;;;;;;10.27;7.00;;;;;;;;;;4330712;33;20513;-64
2022/07/29 14:38:38;;;;;;;9.10;6.43;;;;;;;;;;4318092;33;20094;-64
2022/07/29 14:45:05;;;;;;;8.35;6.07;;;;;;;;;;4330368;33;20093;-64
2022/07/29 14:51:34;;;;;;;10.00;6.28;;;;;;;;;;4315675;33;20168;-65
2022/07/29 15:14:57;;;;;;;9.57;6.03;;;;;;;;;;4359647;32;20101;-64
2022/07/29 15:18:04;;;;;;;9.20;6.18;;;;;;;;;;4347942;32;20167;-63
2022/07/29 15:35:16;;;;;;;9.75;6.53;;;;;;;;;;4359267;32;20087;-64
2022/07/29 15:37:43;;;;;;;9.85;7.30;;;;;;;;;;4361044;32;20151;-64
2022/07/29 15:43:51;;;;;;;10.60;6.53;;;;;;;;;;4376805;32;20104;-65
2022/07/29 15:49:43;;;;;;;9.57;7.20;;;;;;;;;;4376307;32;20074;-65
2022/07/29 15:55:56;;;;;;;11.35;7.90;;;;;;;;;;4376364;32;20158;-65
2022/07/29 15:58:24;;;;;;;9.73;7.25;;;;;;;;;;4372586;32;20138;-65
2022/07/29 16:20:11;;;;;;;10.15;7.10;;;;;;;;;;4391259;32;20145;-65
2022/07/29 16:48:31;;;;;;;11.00;7.75;;;;;;;;;;4391122;32;20523;-65
2022/07/29 16:51:35;;;;;;;16.27;8.63;;;;;;;;;;4390864;32;20093;-65
2022/07/29 17:11:36;;;;;;;12.02;8.95;;;;;;;;;;4393417;32;20538;-66
2022/07/29 17:24:49;;;;;;;10.18;7.03;;;;;;;;;;4392976;32;20181;-65
2022/07/29 17:42:19;;;;;;;11.52;7.50;;;;;;;;;;4360932;32;20133;-65
2022/07/29 17:48:46;;;;;;;15.90;7.97;;;;;;;;;;4360543;32;20168;-65
2022/07/29 18:33:25;;;;;;;19.35;11.05;;;;;;;;;;4394657;32;20170;-66
2022/07/29 18:43:53;;;;;;;17.48;9.77;;;;;;;;;;4393513;32;20088;-65
2022/07/29 19:01:07;;;;;;;16.50;8.98;;;;;;;;;;4391958;32;20089;-66
2022/07/29 19:13:31;;;;;;;15.32;10.20;;;;;;;;;;4391828;32;20447;-65
2022/07/29 19:24:00;;;;;;;21.95;12.02;;;;;;;;;;4392232;32;20137;-65
2022/07/29 19:41:36;;;;;;;24.02;13.15;;;;;;;;;;4392209;32;20181;-65
2022/07/29 20:37:04;;;;;;;;;;;;;;;;;;4391823;32;20167;-65
2022/07/29 22:12:20;;;;;;;14.70;9.63;;;;;;;;;;4392711;32;20089;-65
2022/07/29 22:14:48;;;;;;;14.20;9.65;;;;;;;;;;4393261;32;20084;-65
2022/07/29 22:17:15;;;;;;;16.60;10.45;;;;;;;;;;4392438;32;20543;-65
2022/07/29 22:19:41;;;;;;;14.35;10.15;;;;;;;;;;4378827;32;20090;-65
2022/07/29 22:25:31;;;;;;;16.75;9.98;;;;;;;;;;4392961;32;20062;-65
2022/07/29 22:27:58;;;;;;;14.43;9.57;;;;;;;;;;4378317;32;20069;-65
2022/07/29 22:30:25;;;;;;;14.40;10.80;;;;;;;;;;4392685;32;20109;-65
2022/07/29 22:32:51;;;;;;;16.00;10.48;;;;;;;;;;4392138;32;20070;-65
2022/07/29 22:35:18;;;;;;;14.77;9.68;;;;;;;;;;4392287;32;20069;-65
2022/07/29 22:37:45;;;;;;;15.40;9.98;;;;;;;;;;4392247;32;20073;-66
2022/07/29 22:40:11;;;;;;;13.95;9.57;;;;;;;;;;4378597;32;20074;-65
2022/07/29 22:42:38;;;;;;;15.57;10.00;;;;;;;;;;4377883;32;20081;-65
2022/07/29 22:45:05;;;;;;;15.43;10.02;;;;;;;;;;4392326;32;20168;-66
2022/07/29 22:47:32;;;;;;;14.87;10.45;;;;;;;;;;4392346;32;20078;-65
2022/07/29 22:49:58;;;;;;;16.27;10.60;;;;;;;;;;4366025;32;20082;-65
2022/07/29 22:52:25;;;;;;;15.68;10.75;;;;;;;;;;4391864;32;20600;-65
2022/07/29 22:54:52;;;;;;;16.33;9.95;;;;;;;;;;4391070;32;20157;-65
2022/07/29 22:57:18;;;;;;;16.45;9.77;;;;;;;;;;4392033;32;20504;-65
2022/07/29 22:59:45;;;;;;;15.15;9.63;;;;;;;;;;4391114;32;20085;-66
2022/07/29 23:02:12;;;;;;;15.00;10.27;;;;;;;;;;4389602;32;20085;-65
2022/07/29 23:04:38;;;;;;;12.23;9.10;;;;;;;;;;4391729;32;20081;-65
2022/07/29 23:07:05;;;;;;;12.20;8.82;;;;;;;;;;4391255;32;20096;-65
2022/07/29 23:09:32;;;;;;;13.93;9.65;;;;;;;;;;4390749;32;20084;-65
2022/07/29 23:11:58;;;;;;;13.20;9.23;;;;;;;;;;4391740;32;20519;-65
2022/07/29 23:14:25;;;;;;;15.00;10.02;;;;;;;;;;4391693;32;20064;-65
2022/07/29 23:16:53;;;;;;;13.15;9.40;;;;;;;;;;4390130;32;20100;-65
2022/07/29 23:19:19;;;;;;;12.10;9.05;;;;;;;;;;4391929;32;20094;-65
2022/07/29 23:21:46;;;;;;;16.85;8.75;;;;;;;;;;4390193;32;20152;-66
2022/07/29 23:24:13;;;;;;;17.20;10.65;;;;;;;;;;4389981;32;20081;-66
2022/07/29 23:26:39;;;;;;;11.27;8.88;;;;;;;;;;4390056;32;20548;-66
2022/07/29 23:29:06;;;;;;;13.30;8.68;;;;;;;;;;4395681;32;20088;-66
2022/07/29 23:31:33;;;;;;;11.35;8.95;;;;;;;;;;4379109;32;20184;-66
2022/07/29 23:34:00;;;;;;;12.77;8.65;;;;;;;;;;4391685;32;20082;-65
2022/07/29 23:36:27;;;;;;;12.32;8.27;;;;;;;;;;4377496;32;20090;-66
2022/07/29 23:38:54;;;;;;;11.90;8.50;;;;;;;;;;4377870;32;20077;-66
2022/07/29 23:41:22;;;;;;;11.50;8.43;;;;;;;;;;4391549;32;20459;-65
2022/07/29 23:43:49;;;;;;;13.00;8.63;;;;;;;;;;4390315;32;20065;-66
2022/07/29 23:46:16;;;;;;;11.48;8.32;;;;;;;;;;4377254;32;20542;-65
2022/07/29 23:48:42;;;;;;;12.30;8.55;;;;;;;;;;4391865;32;20572;-65
2022/07/29 23:51:09;;;;;;;10.60;8.07;;;;;;;;;;4390154;32;20090;-66
2022/07/29 23:53:36;;;;;;;12.90;8.35;;;;;;;;;;4389541;32;20542;-65
2022/07/29 23:56:04;;;;;;;11.68;8.00;;;;;;;;;;4377387;32;20583;-65
2022/07/29 23:58:31;;;;;;;12.55;8.13;;;;;;;;;;4389625;32;20093;-65
